Time;durP1;ratioP1;P1;durP2;ratioP2;P2;SDS_P1;SDS_P2;PMS_P1;PMS_P2;Temp;Humidity;BMP_temperature;BMP_pressure;BME280_temperature;BME280_humidity;BME280_pressure;Samples;Min_cycle;Max_cycle;Signal;HPM_P1;HPM_P2
2022/11/05 00:09:36;;;;;;;9.98;3.08;;;;;;;;;;4978799;28;20042;-22
2022/11/05 00:17:39;;;;;;;3.60;2.35;;;;;;;;;;4978428;28;20085;-22
2022/11/05 00:20:06;;;;;;;7.68;2.58;;;;;;;;;;4978833;28;20031;-21
2022/11/05 00:25:18;;;;;;;4.22;2.67;;;;;;;;;;4978289;28;20049;-23
2022/11/05 00:27:48;;;;;;;7.85;2.90;;;;;;;;;;4978113;28;20090;-25
2022/11/05 00:30:17;;;;;;;7.18;2.55;;;;;;;;;;4978436;28;20370;-22
2022/11/05 00:32:43;;;;;;;5.60;2.78;;;;;;;;;;4977864;28;20114;-22
2022/11/05 00:35:09;;;;;;;5.55;2.58;;;;;;;;;;4978032;28;20026;-21
2022/11/05 00:37:36;;;;;;;6.97;3.53;;;;;;;;;;4977931;28;20181;-22
2022/11/05 00:40:02;;;;;;;10.35;3.05;;;;;;;;;;4978157;28;20023;-22
2022/11/05 00:45:14;;;;;;;7.75;2.30;;;;;;;;;;4978210;28;20590;-23
2022/11/05 00:50:25;;;;;;;4.97;1.98;;;;;;;;;;4977812;28;20053;-22
2022/11/05 00:52:55;;;;;;;12.65;3.53;;;;;;;;;;4977549;28;20031;-22
2022/11/05 00:55:23;;;;;;;6.50;2.45;;;;;;;;;;4977637;28;20027;-22
2022/11/05 00:57:49;;;;;;;8.77;3.03;;;;;;;;;;4977551;28;20088;-22
2022/11/05 01:00:15;;;;;;;6.07;2.85;;;;;;;;;;4977848;28;20109;-22
2022/11/05 01:02:42;;;;;;;7.80;3.35;;;;;;;;;;4977464;28;20066;-22
2022/11/05 01:05:08;;;;;;;12.93;4.07;;;;;;;;;;4977336;28;20046;-22
2022/11/05 01:07:34;;;;;;;7.95;2.53;;;;;;;;;;4977693;28;20030;-22
2022/11/05 01:10:00;;;;;;;3.53;1.90;;;;;;;;;;4977390;28;20117;-23
2022/11/05 01:12:27;;;;;;;7.15;2.35;;;;;;;;;;4977471;28;20105;-22
2022/11/05 01:14:53;;;;;;;5.85;2.25;;;;;;;;;;4977313;28;20019;-23
2022/11/05 01:17:20;;;;;;;9.05;2.30;;;;;;;;;;4976820;28;20081;-22
2022/11/05 01:19:46;;;;;;;17.52;2.78;;;;;;;;;;4977460;28;20085;-23
2022/11/05 01:22:12;;;;;;;6.40;2.85;;;;;;;;;;4977294;28;20062;-22
2022/11/05 01:24:38;;;;;;;6.03;2.42;;;;;;;;;;4977109;28;20110;-25
2022/11/05 01:27:04;;;;;;;4.55;2.67;;;;;;;;;;4977019;28;20039;-21
2022/11/05 01:29:30;;;;;;;7.50;3.13;;;;;;;;;;4977029;28;20341;-21
2022/11/05 01:31:56;;;;;;;5.88;2.72;;;;;;;;;;4976842;28;20069;-22
2022/11/05 01:34:23;;;;;;;10.00;2.67;;;;;;;;;;4976868;28;20454;-22
2022/11/05 01:36:49;;;;;;;6.88;2.55;;;;;;;;;;4976840;28;20031;-22
2022/11/05 01:39:15;;;;;;;10.95;2.45;;;;;;;;;;4976881;28;20050;-22
2022/11/05 01:41:41;;;;;;;4.10;2.25;;;;;;;;;;4976777;28;20027;-23
2022/11/05 01:44:26;;;;;;;7.50;2.47;;;;;;;;;;4976607;28;20031;-22
2022/11/05 01:46:52;;;;;;;10.40;3.97;;;;;;;;;;4976671;28;20089;-22
2022/11/05 01:49:36;;;;;;;5.47;2.92;;;;;;;;;;4976930;28;20038;-22
2022/11/05 01:52:03;;;;;;;5.55;2.38;;;;;;;;;;4959427;28;20035;-22
2022/11/05 01:54:31;;;;;;;5.60;2.92;;;;;;;;;;4976849;28;20035;-22
2022/11/05 01:57:01;;;;;;;11.80;3.65;;;;;;;;;;4976782;28;20382;-24
2022/11/05 01:59:34;;;;;;;9.88;3.13;;;;;;;;;;4976725;28;20116;-23
2022/11/05 02:02:01;;;;;;;3.85;2.33;;;;;;;;;;4976270;28;20022;-22
2022/11/05 02:04:31;;;;;;;5.75;2.60;;;;;;;;;;4976200;28;20058;-22
2022/11/05 02:06:58;;;;;;;5.20;2.40;;;;;;;;;;4976323;28;20037;-24
2022/11/05 02:09:36;;;;;;;9.48;3.05;;;;;;;;;;4976314;28;20026;-22
2022/11/05 02:12:04;;;;;;;7.60;3.00;;;;;;;;;;4976055;28;20074;-23
2022/11/05 02:14:30;;;;;;;7.00;2.42;;;;;;;;;;4976196;28;20042;-23
2022/11/05 02:16:56;;;;;;;6.05;2.10;;;;;;;;;;4976244;28;20041;-22
2022/11/05 02:19:41;;;;;;;5.32;2.22;;;;;;;;;;4976176;28;20061;-22
2022/11/05 02:22:10;;;;;;;6.63;2.58;;;;;;;;;;4976326;28;20410;-23
2022/11/05 02:24:53;;;;;;;4.53;2.40;;;;;;;;;;4976086;28;20039;-21
2022/11/05 02:27:31;;;;;;;3.80;2.17;;;;;;;;;;4976375;28;20114;-22
2022/11/05 02:30:18;;;;;;;3.83;2.53;;;;;;;;;;4975644;28;20101;-21
2022/11/05 02:32:56;;;;;;;6.78;2.83;;;;;;;;;;4946638;28;20438;-21
2022/11/05 02:35:23;;;;;;;4.47;2.40;;;;;;;;;;4958970;28;20062;-22
2022/11/05 02:37:53;;;;;;;5.35;2.38;;;;;;;;;;4975944;28;20048;-21
2022/11/05 02:40:33;;;;;;;6.68;2.65;;;;;;;;;;4976445;28;20041;-24
2022/11/05 02:43:18;;;;;;;9.38;2.60;;;;;;;;;;4975853;28;20094;-22
2022/11/05 02:46:02;;;;;;;3.97;2.20;;;;;;;;;;4976409;28;20019;-23
2022/11/05 02:48:47;;;;;;;4.03;2.30;;;;;;;;;;4975873;28;20031;-23
2022/11/05 02:51:23;;;;;;;8.98;2.38;;;;;;;;;;4976022;28;20504;-22
2022/11/05 02:53:57;;;;;;;4.63;2.13;;;;;;;;;;4976319;28;20158;-22
2022/11/05 02:56:26;;;;;;;4.38;2.30;;;;;;;;;;4976352;28;20078;-22
2022/11/05 02:58:52;;;;;;;3.60;2.13;;;;;;;;;;4976021;28;20030;-23
2022/11/05 03:01:19;;;;;;;3.10;2.10;;;;;;;;;;4975997;28;20038;-22
2022/11/05 03:03:46;;;;;;;4.32;2.85;;;;;;;;;;4975458;28;20050;-21
2022/11/05 03:06:18;;;;;;;4.40;1.88;;;;;;;;;;4975688;28;20410;-22
2022/11/05 03:08:44;;;;;;;6.78;2.33;;;;;;;;;;4975941;28;20027;-23
2022/11/05 03:11:15;;;;;;;4.97;2.42;;;;;;;;;;4975591;28;20039;-21
2022/11/05 03:13:57;;;;;;;3.53;2.00;;;;;;;;;;4975581;28;20034;-22
2022/11/05 03:16:39;;;;;;;4.75;2.80;;;;;;;;;;4975647;28;20026;-22
2022/11/05 03:19:05;;;;;;;;;;;;;;;;;;4976324;28;20106;-21
2022/11/05 03:21:40;;;;;;;4.75;2.28;;;;;;;;;;4975811;28;19998;-22
2022/11/05 03:24:18;;;;;;;3.65;2.17;;;;;;;;;;4975507;28;20035;-22
2022/11/05 03:26:48;;;;;;;5.65;2.25;;;;;;;;;;4975814;28;20031;-21
2022/11/05 03:29:18;;;;;;;2.90;2.00;;;;;;;;;;4975479;28;20031;-22
2022/11/05 03:31:46;;;;;;;4.80;2.63;;;;;;;;;;4975634;28;20031;-22
2022/11/05 03:34:13;;;;;;;3.22;2.00;;;;;;;;;;4975366;28;20023;-21
2022/11/05 03:36:45;;;;;;;7.32;2.47;;;;;;;;;;4975652;28;20094;-22
2022/11/05 03:39:13;;;;;;;6.05;2.40;;;;;;;;;;4975949;28;20023;-21
2022/11/05 03:41:42;;;;;;;8.68;2.30;;;;;;;;;;4978720;28;20034;-22
2022/11/05 03:44:09;;;;;;;4.97;2.72;;;;;;;;;;4979210;28;20030;-22
2022/11/05 03:46:40;;;;;;;3.80;2.00;;;;;;;;;;4961843;28;20035;-21
2022/11/05 03:49:09;;;;;;;4.93;2.10;;;;;;;;;;4978875;28;20126;-22
2022/11/05 03:51:53;;;;;;;3.30;1.90;;;;;;;;;;4978762;28;20038;-22
2022/11/05 03:54:19;;;;;;;7.95;2.58;;;;;;;;;;4978813;28;20098;-22
2022/11/05 03:56:51;;;;;;;7.55;2.63;;;;;;;;;;4978753;28;20034;-22
2022/11/05 03:59:17;;;;;;;7.60;2.60;;;;;;;;;;4978675;28;20027;-22
2022/11/05 04:01:44;;;;;;;4.22;1.92;;;;;;;;;;4978773;28;20046;-22
2022/11/05 04:04:10;;;;;;;2.63;1.98;;;;;;;;;;4978415;28;20437;-22
2022/11/05 04:14:50;;;;;;;5.00;1.70;;;;;;;;;;4978724;28;20037;-22
2022/11/05 04:17:16;;;;;;;11.68;2.75;;;;;;;;;;4978626;28;20411;-23
2022/11/05 04:25:15;;;;;;;3.58;2.13;;;;;;;;;;4978803;28;20434;-21
2022/11/05 04:27:41;;;;;;;5.15;2.60;;;;;;;;;;4978463;28;20022;-21
2022/11/05 04:30:17;;;;;;;8.00;2.35;;;;;;;;;;4978158;28;20086;-21
2022/11/05 04:32:54;;;;;;;3.58;2.40;;;;;;;;;;4978264;28;20509;-23
2022/11/05 04:35:20;;;;;;;7.18;2.13;;;;;;;;;;4978325;28;20034;-21
2022/11/05 04:37:46;;;;;;;5.35;2.08;;;;;;;;;;4978285;28;20051;-22
2022/11/05 04:40:12;;;;;;;5.38;2.22;;;;;;;;;;4978006;28;20030;-24
2022/11/05 04:42:39;;;;;;;5.10;2.05;;;;;;;;;;4977890;28;20041;-21
2022/11/05 04:45:05;;;;;;;3.85;2.22;;;;;;;;;;4960805;28;20023;-21
2022/11/05 04:47:31;;;;;;;4.00;2.13;;;;;;;;;;4977862;28;20373;-22
2022/11/05 04:49:57;;;;;;;4.57;1.58;;;;;;;;;;4977789;28;20030;-21
2022/11/05 04:52:23;;;;;;;2.40;2.20;;;;;;;;;;4977060;28;20062;-21
2022/11/05 04:54:50;;;;;;;4.05;1.95;;;;;;;;;;4977981;28;20366;-24
2022/11/05 04:57:16;;;;;;;3.10;1.90;;;;;;;;;;4977931;28;20030;-22
2022/11/05 04:59:42;;;;;;;3.75;1.85;;;;;;;;;;4977854;28;20034;-21
2022/11/05 05:02:08;;;;;;;5.53;3.53;;;;;;;;;;4977496;28;20450;-21
2022/11/05 05:04:34;;;;;;;6.97;2.60;;;;;;;;;;4977307;28;20151;-25
2022/11/05 05:07:00;;;;;;;3.42;2.03;;;;;;;;;;4977466;28;20381;-21
2022/11/05 05:09:27;;;;;;;5.00;2.42;;;;;;;;;;4977385;28;20038;-21
2022/11/05 05:11:53;;;;;;;8.20;2.35;;;;;;;;;;4977236;28;20134;-21
2022/11/05 05:14:19;;;;;;;6.03;2.42;;;;;;;;;;4977355;28;20023;-22
2022/11/05 05:16:45;;;;;;;6.30;2.72;;;;;;;;;;4977554;28;20026;-21
2022/11/05 05:19:11;;;;;;;5.45;2.10;;;;;;;;;;4977233;28;20023;-25
2022/11/05 05:21:37;;;;;;;3.13;2.15;;;;;;;;;;4977238;28;20031;-23
2022/11/05 05:24:07;;;;;;;3.40;1.77;;;;;;;;;;4977098;28;20037;-23
2022/11/05 05:26:34;;;;;;;3.08;1.90;;;;;;;;;;4977000;28;20030;-24
2022/11/05 05:29:01;;;;;;;5.53;2.22;;;;;;;;;;4977350;28;20513;-22
2022/11/05 05:31:27;;;;;;;4.60;2.03;;;;;;;;;;4976930;28;20485;-21
2022/11/05 05:33:54;;;;;;;4.30;2.95;;;;;;;;;;4977141;28;20401;-22
2022/11/05 05:36:20;;;;;;;3.80;1.88;;;;;;;;;;4976907;28;20026;-21
2022/11/05 05:38:46;;;;;;;2.70;2.17;;;;;;;;;;4977118;28;20023;-21
2022/11/05 05:41:13;;;;;;;5.25;2.15;;;;;;;;;;4977582;28;20050;-22
2022/11/05 05:43:39;;;;;;;5.68;1.98;;;;;;;;;;4976726;28;20034;-21
2022/11/05 05:46:06;;;;;;;2.85;1.90;;;;;;;;;;4977008;28;20506;-21
2022/11/05 05:48:33;;;;;;;3.22;2.38;;;;;;;;;;4976697;28;20158;-21
2022/11/05 05:51:00;;;;;;;5.65;1.85;;;;;;;;;;4959653;28;20105;-21
2022/11/05 05:53:27;;;;;;;6.18;2.95;;;;;;;;;;4959513;28;20352;-23
2022/11/05 05:55:54;;;;;;;3.92;2.10;;;;;;;;;;4976622;28;20026;-21
2022/11/05 05:58:20;;;;;;;6.10;2.33;;;;;;;;;;4976507;28;20365;-21
2022/11/05 06:00:46;;;;;;;5.30;2.55;;;;;;;;;;4976481;28;20101;-21
2022/11/05 06:03:12;;;;;;;4.13;1.70;;;;;;;;;;4955888;28;20043;-21
2022/11/05 06:05:38;;;;;;;2.90;2.35;;;;;;;;;;4956234;29;20031;-21
2022/11/05 06:08:05;;;;;;;5.43;2.10;;;;;;;;;;4957312;29;20093;-21
2022/11/05 06:10:31;;;;;;;2.80;1.70;;;;;;;;;;4957011;29;20031;-24
2022/11/05 06:13:00;;;;;;;5.25;2.83;;;;;;;;;;4956898;28;20471;-21
2022/11/05 06:15:26;;;;;;;6.28;2.53;;;;;;;;;;4957194;29;20336;-22
2022/11/05 06:17:52;;;;;;;4.47;3.90;;;;;;;;;;4956965;29;20058;-24
2022/11/05 06:20:19;;;;;;;5.85;2.28;;;;;;;;;;4957178;29;20110;-22
2022/11/05 06:22:53;;;;;;;5.78;2.00;;;;;;;;;;4957121;28;20117;-22
2022/11/05 06:25:19;;;;;;;4.13;2.33;;;;;;;;;;4957154;29;20107;-21
2022/11/05 06:27:45;;;;;;;3.50;1.50;;;;;;;;;;4956838;29;20124;-22
2022/11/05 06:30:12;;;;;;;5.00;1.90;;;;;;;;;;4957074;29;20059;-21
2022/11/05 06:32:38;;;;;;;1.95;1.75;;;;;;;;;;4956806;28;20023;-23
2022/11/05 06:35:04;;;;;;;3.33;2.13;;;;;;;;;;4956774;29;20023;-22
2022/11/05 06:37:32;;;;;;;6.93;2.13;;;;;;;;;;4956988;29;20023;-21
2022/11/05 06:39:59;;;;;;;4.35;2.25;;;;;;;;;;4956964;29;20383;-21
2022/11/05 06:42:25;;;;;;;3.03;2.00;;;;;;;;;;4956567;28;20489;-26
2022/11/05 06:44:52;;;;;;;4.15;2.15;;;;;;;;;;4956606;29;20035;-25
2022/11/05 06:47:18;;;;;;;4.03;1.83;;;;;;;;;;4956560;29;20098;-24
2022/11/05 06:49:45;;;;;;;4.50;1.98;;;;;;;;;;4956855;29;20027;-22
2022/11/05 06:52:11;;;;;;;2.90;2.08;;;;;;;;;;4956403;28;20098;-21
2022/11/05 06:54:38;;;;;;;2.35;1.60;;;;;;;;;;4956797;29;20023;-21
2022/11/05 06:57:05;;;;;;;3.70;1.77;;;;;;;;;;4956709;29;20035;-22
2022/11/05 06:59:31;;;;;;;4.72;2.05;;;;;;;;;;4956738;29;20024;-20
2022/11/05 07:01:57;;;;;;;2.75;2.10;;;;;;;;;;4956654;28;20028;-23
2022/11/05 07:04:23;;;;;;;4.00;2.20;;;;;;;;;;4968996;28;20042;-23
2022/11/05 07:06:50;;;;;;;5.40;2.70;;;;;;;;;;4975613;28;20045;-24
2022/11/05 07:09:16;;;;;;;4.88;2.30;;;;;;;;;;4975952;28;20023;-22
2022/11/05 07:11:42;;;;;;;3.78;2.47;;;;;;;;;;4975580;28;20069;-23
2022/11/05 07:14:08;;;;;;;4.70;2.05;;;;;;;;;;4975572;28;20023;-20
2022/11/05 07:16:34;;;;;;;4.65;2.25;;;;;;;;;;4978850;28;20454;-23
2022/11/05 07:19:01;;;;;;;3.58;1.95;;;;;;;;;;4979697;28;20477;-21
2022/11/05 07:21:28;;;;;;;4.05;2.45;;;;;;;;;;4979506;28;20034;-21
2022/11/05 07:23:54;;;;;;;5.28;2.40;;;;;;;;;;4979512;28;20398;-21
2022/11/05 07:26:20;;;;;;;3.03;1.90;;;;;;;;;;4979561;28;20058;-22
2022/11/05 07:28:46;;;;;;;4.10;2.30;;;;;;;;;;4979263;28;20513;-21
2022/11/05 07:31:12;;;;;;;3.00;2.15;;;;;;;;;;4979159;28;20026;-21
2022/11/05 07:33:38;;;;;;;4.60;2.20;;;;;;;;;;4962057;28;20028;-22
2022/11/05 07:36:05;;;;;;;4.93;2.00;;;;;;;;;;4979417;28;20035;-21
2022/11/05 07:38:31;;;;;;;4.38;2.55;;;;;;;;;;4979105;28;20101;-21
2022/11/05 07:40:59;;;;;;;3.47;2.63;;;;;;;;;;4979605;28;20018;-21
2022/11/05 07:43:25;;;;;;;3.05;2.00;;;;;;;;;;4961898;28;20348;-21
2022/11/05 07:45:51;;;;;;;12.00;3.50;;;;;;;;;;4962936;28;20034;-21
2022/11/05 07:48:17;;;;;;;4.75;2.63;;;;;;;;;;4979478;28;20030;-22
2022/11/05 07:50:43;;;;;;;2.83;2.10;;;;;;;;;;4978843;28;20026;-24
2022/11/05 07:53:11;;;;;;;6.82;2.20;;;;;;;;;;4978695;28;20042;-21
2022/11/05 07:55:39;;;;;;;5.68;2.10;;;;;;;;;;4979054;28;20093;-21
2022/11/05 07:58:05;;;;;;;2.60;1.60;;;;;;;;;;4978737;28;20034;-23
2022/11/05 08:00:31;;;;;;;7.43;2.50;;;;;;;;;;4978672;28;20027;-21
2022/11/05 08:02:57;;;;;;;2.60;1.38;;;;;;;;;;4978388;28;20030;-23
2022/11/05 08:05:24;;;;;;;4.03;2.20;;;;;;;;;;4978855;28;20066;-23
2022/11/05 08:07:50;;;;;;;3.70;2.10;;;;;;;;;;4978860;28;20039;-21
2022/11/05 08:10:16;;;;;;;3.03;1.85;;;;;;;;;;4978567;28;20369;-22
2022/11/05 08:12:42;;;;;;;5.35;1.73;;;;;;;;;;4978581;28;20344;-22
2022/11/05 08:15:09;;;;;;;3.42;1.73;;;;;;;;;;4978680;28;20022;-23
2022/11/05 08:17:35;;;;;;;3.90;1.90;;;;;;;;;;4978385;28;20027;-21
2022/11/05 08:20:01;;;;;;;4.72;1.90;;;;;;;;;;4978893;28;20343;-21
2022/11/05 08:22:27;;;;;;;3.30;1.85;;;;;;;;;;4978215;28;20041;-21
2022/11/05 08:24:53;;;;;;;5.35;2.22;;;;;;;;;;4978581;28;20121;-21
2022/11/05 08:27:20;;;;;;;4.85;2.05;;;;;;;;;;4977008;28;20480;-21
2022/11/05 08:29:46;;;;;;;3.35;2.10;;;;;;;;;;4978115;28;20113;-23
2022/11/05 08:32:12;;;;;;;2.75;1.88;;;;;;;;;;4978256;28;20366;-23
2022/11/05 08:34:38;;;;;;;7.28;2.83;;;;;;;;;;4978347;28;20374;-21
2022/11/05 08:37:04;;;;;;;2.90;1.80;;;;;;;;;;4978028;28;20031;-24
2022/11/05 08:39:31;;;;;;;5.45;2.17;;;;;;;;;;4978225;28;20042;-22
2022/11/05 08:41:57;;;;;;;3.55;1.98;;;;;;;;;;4977896;28;20023;-22
2022/11/05 08:44:23;;;;;;;2.00;1.23;;;;;;;;;;4960893;28;20343;-21
2022/11/05 08:46:49;;;;;;;4.72;1.80;;;;;;;;;;4977907;28;20366;-23
2022/11/05 08:49:15;;;;;;;3.22;2.08;;;;;;;;;;4977872;28;20390;-25
2022/11/05 08:51:43;;;;;;;2.92;2.08;;;;;;;;;;4977693;28;20030;-22
2022/11/05 08:54:09;;;;;;;6.82;2.13;;;;;;;;;;4978052;28;20031;-22
2022/11/05 08:56:35;;;;;;;2.85;2.00;;;;;;;;;;4977981;28;20054;-22
2022/11/05 08:59:02;;;;;;;4.55;1.80;;;;;;;;;;4977923;28;20054;-22
2022/11/05 09:01:28;;;;;;;2.38;1.70;;;;;;;;;;4977623;28;20055;-22
2022/11/05 09:03:54;;;;;;;3.28;2.20;;;;;;;;;;4977314;28;20050;-22
2022/11/05 09:06:20;;;;;;;2.60;1.92;;;;;;;;;;4977455;28;20497;-22
2022/11/05 09:08:46;;;;;;;3.42;1.75;;;;;;;;;;4977750;28;20034;-22
2022/11/05 09:11:12;;;;;;;5.63;2.08;;;;;;;;;;4977280;28;20039;-23
2022/11/05 09:13:39;;;;;;;4.53;1.90;;;;;;;;;;4977599;28;20025;-22
2022/11/05 09:16:05;;;;;;;3.20;2.08;;;;;;;;;;4977251;28;20031;-23
2022/11/05 09:18:31;;;;;;;2.63;1.80;;;;;;;;;;4960471;28;20026;-23
2022/11/05 09:20:58;;;;;;;2.20;1.92;;;;;;;;;;4977494;28;20363;-22
2022/11/05 09:23:24;;;;;;;3.35;1.85;;;;;;;;;;4977223;28;20027;-22
2022/11/05 09:25:50;;;;;;;3.65;1.80;;;;;;;;;;4977409;28;20037;-23
2022/11/05 09:28:19;;;;;;;4.07;2.00;;;;;;;;;;4960070;28;20038;-23
2022/11/05 09:30:48;;;;;;;3.97;1.60;;;;;;;;;;4977338;28;20081;-23
2022/11/05 09:33:14;;;;;;;2.78;1.73;;;;;;;;;;4976990;28;20035;-23
2022/11/05 09:35:41;;;;;;;2.75;1.80;;;;;;;;;;4976881;28;20109;-23
2022/11/05 09:38:07;;;;;;;5.07;1.83;;;;;;;;;;4976862;28;20443;-22
2022/11/05 09:40:37;;;;;;;1.75;1.58;;;;;;;;;;4977149;28;20023;-22
2022/11/05 09:43:04;;;;;;;4.13;3.15;;;;;;;;;;4977298;28;20368;-22
2022/11/05 09:45:31;;;;;;;2.95;2.20;;;;;;;;;;4977013;28;20031;-22
2022/11/05 09:48:03;;;;;;;2.28;1.73;;;;;;;;;;4977292;28;20031;-23
2022/11/05 09:50:34;;;;;;;5.85;1.88;;;;;;;;;;4977000;28;20030;-23
2022/11/05 09:53:01;;;;;;;4.57;1.77;;;;;;;;;;4976552;28;20045;-22
2022/11/05 09:55:33;;;;;;;2.45;1.88;;;;;;;;;;4976883;28;20085;-22
2022/11/05 09:58:00;;;;;;;3.78;2.03;;;;;;;;;;4976864;28;20391;-23
2022/11/05 10:00:27;;;;;;;5.13;1.90;;;;;;;;;;4976793;28;20354;-22
2022/11/05 10:02:54;;;;;;;3.83;1.92;;;;;;;;;;4976198;28;20030;-23
2022/11/05 10:05:22;;;;;;;3.58;1.90;;;;;;;;;;4959380;28;20081;-22
2022/11/05 10:07:50;;;;;;;3.17;2.17;;;;;;;;;;4976672;28;20035;-22
2022/11/05 10:10:42;;;;;;;5.72;1.70;;;;;;;;;;4976378;28;20041;-22
2022/11/05 10:13:27;;;;;;;3.13;1.70;;;;;;;;;;4973536;28;20074;-26
2022/11/05 10:16:12;;;;;;;5.55;2.00;;;;;;;;;;4976291;28;20462;-22
2022/11/05 10:18:39;;;;;;;3.47;1.90;;;;;;;;;;4976501;28;20049;-23
2022/11/05 10:21:06;;;;;;;3.50;1.88;;;;;;;;;;4976492;28;20030;-22
2022/11/05 10:23:33;;;;;;;3.78;1.52;;;;;;;;;;4976034;28;20034;-23
2022/11/05 10:26:02;;;;;;;2.35;1.77;;;;;;;;;;4976440;28;20049;-23
2022/11/05 10:28:29;;;;;;;4.68;2.22;;;;;;;;;;4976932;28;20027;-23
2022/11/05 10:30:58;;;;;;;3.45;1.85;;;;;;;;;;4976314;28;20038;-22
2022/11/05 10:33:35;;;;;;;4.45;1.75;;;;;;;;;;4976172;28;20089;-23
2022/11/05 10:36:04;;;;;;;3.78;1.30;;;;;;;;;;4976063;28;20031;-22
2022/11/05 10:38:30;;;;;;;3.03;1.70;;;;;;;;;;4975983;28;20056;-23
2022/11/05 10:41:15;;;;;;;3.20;1.70;;;;;;;;;;4976007;28;20103;-22
2022/11/05 10:43:48;;;;;;;1.85;1.67;;;;;;;;;;4976097;28;20037;-26
2022/11/05 10:46:23;;;;;;;4.25;2.45;;;;;;;;;;4976195;28;20049;-25
2022/11/05 10:48:52;;;;;;;2.55;1.88;;;;;;;;;;4975806;28;20057;-21
2022/11/05 10:51:19;;;;;;;2.65;2.10;;;;;;;;;;4975106;28;20031;-21
2022/11/05 10:53:50;;;;;;;5.88;1.75;;;;;;;;;;4975795;28;20030;-21
2022/11/05 10:56:36;;;;;;;2.78;1.92;;;;;;;;;;4976065;28;20026;-22
2022/11/05 10:59:03;;;;;;;4.13;1.80;;;;;;;;;;4975761;28;20023;-23
2022/11/05 11:01:30;;;;;;;2.58;2.15;;;;;;;;;;4975715;28;20030;-21
2022/11/05 11:04:11;;;;;;;3.03;1.60;;;;;;;;;;4975493;28;20141;-22
2022/11/05 11:06:42;;;;;;;4.00;1.83;;;;;;;;;;4975959;28;20050;-22
2022/11/05 11:09:22;;;;;;;3.17;1.83;;;;;;;;;;4975700;28;20027;-22
2022/11/05 11:11:55;;;;;;;4.32;2.63;;;;;;;;;;4975795;28;20050;-21
2022/11/05 11:14:21;;;;;;;4.82;2.10;;;;;;;;;;4975966;28;20038;-22
2022/11/05 11:16:55;;;;;;;2.03;1.63;;;;;;;;;;4975628;28;20477;-22
2022/11/05 11:19:29;;;;;;;4.38;1.83;;;;;;;;;;4975900;28;20154;-21
2022/11/05 11:22:18;;;;;;;1.90;1.70;;;;;;;;;;4975538;28;20358;-22
2022/11/05 11:24:49;;;;;;;2.83;1.98;;;;;;;;;;4975328;28;20042;-23
2022/11/05 11:27:18;;;;;;;3.95;1.85;;;;;;;;;;4975796;28;20042;-22
2022/11/05 11:29:47;;;;;;;2.05;1.58;;;;;;;;;;4975733;28;20055;-22
2022/11/05 11:32:15;;;;;;;3.97;1.85;;;;;;;;;;4975567;28;20042;-22
2022/11/05 11:34:42;;;;;;;3.05;1.77;;;;;;;;;;4976024;28;20081;-22
2022/11/05 11:37:17;;;;;;;2.85;2.20;;;;;;;;;;4975427;28;20093;-21
2022/11/05 11:39:46;;;;;;;5.38;2.22;;;;;;;;;;4975446;28;20358;-21
2022/11/05 11:42:29;;;;;;;2.30;1.83;;;;;;;;;;4975846;28;20065;-22
2022/11/05 11:44:58;;;;;;;2.70;1.63;;;;;;;;;;4975716;28;20541;-22
2022/11/05 11:47:26;;;;;;;3.00;1.70;;;;;;;;;;4975300;28;20485;-22
2022/11/05 11:49:54;;;;;;;6.47;1.90;;;;;;;;;;4975305;28;20027;-22
2022/11/05 11:52:28;;;;;;;2.83;2.08;;;;;;;;;;4975431;28;20045;-21
2022/11/05 11:55:17;;;;;;;3.60;2.65;;;;;;;;;;4975300;28;20033;-25
2022/11/05 11:57:51;;;;;;;4.03;1.98;;;;;;;;;;4967843;28;20109;-21
2022/11/05 12:00:18;;;;;;;2.55;1.58;;;;;;;;;;4975236;28;20105;-22
2022/11/05 12:03:03;;;;;;;3.33;2.28;;;;;;;;;;4978394;28;20039;-22
2022/11/05 12:05:44;;;;;;;2.85;1.92;;;;;;;;;;4940503;29;20043;-22
2022/11/05 12:08:14;;;;;;;2.25;1.70;;;;;;;;;;4939209;29;20456;-24
2022/11/05 12:10:58;;;;;;;5.88;2.53;;;;;;;;;;4940075;29;20048;-23
2022/11/05 12:13:34;;;;;;;3.60;1.88;;;;;;;;;;4939974;29;20043;-21
2022/11/05 12:16:21;;;;;;;2.90;2.05;;;;;;;;;;4939982;29;20034;-22
2022/11/05 12:18:47;;;;;;;3.10;1.75;;;;;;;;;;4940127;29;20075;-22
2022/11/05 12:21:27;;;;;;;3.55;2.65;;;;;;;;;;4939943;29;20079;-22
2022/11/05 12:24:08;;;;;;;3.05;2.35;;;;;;;;;;4939885;29;20120;-22
2022/11/05 12:26:43;;;;;;;2.42;1.90;;;;;;;;;;4940040;29;20028;-24
2022/11/05 12:29:28;;;;;;;2.63;1.73;;;;;;;;;;4940099;29;20047;-21
2022/11/05 12:32:01;;;;;;;4.28;2.00;;;;;;;;;;4939804;29;20368;-21
2022/11/05 12:34:46;;;;;;;2.95;1.77;;;;;;;;;;4939985;29;20083;-21
2022/11/05 12:37:22;;;;;;;2.75;2.28;;;;;;;;;;4940150;29;20024;-22
2022/11/05 12:39:49;;;;;;;2.38;1.52;;;;;;;;;;4940122;29;20031;-22
2022/11/05 12:42:27;;;;;;;2.72;1.98;;;;;;;;;;4939502;29;20044;-21
2022/11/05 12:44:56;;;;;;;4.40;1.67;;;;;;;;;;4938547;29;20486;-22
2022/11/05 12:47:36;;;;;;;2.40;1.83;;;;;;;;;;4938588;29;20471;-22
2022/11/05 12:50:17;;;;;;;3.13;2.03;;;;;;;;;;4939744;29;20056;-22
2022/11/05 12:52:43;;;;;;;;;;;;;;;;;;4938709;29;20036;-21
2022/11/05 12:55:14;;;;;;;8.43;2.15;;;;;;;;;;4939586;29;19911;-23
2022/11/05 12:57:42;;;;;;;3.55;2.20;;;;;;;;;;4939785;29;20518;-22
2022/11/05 13:00:15;;;;;;;2.42;1.83;;;;;;;;;;4939445;29;20474;-22
2022/11/05 13:02:47;;;;;;;2.50;1.90;;;;;;;;;;4939250;29;20031;-22
2022/11/05 13:05:14;;;;;;;5.28;2.15;;;;;;;;;;4977437;28;20074;-24
2022/11/05 13:07:46;;;;;;;2.95;1.75;;;;;;;;;;4978062;28;20042;-22
2022/11/05 13:10:23;;;;;;;2.20;2.00;;;;;;;;;;4978023;28;20030;-21
2022/11/05 13:12:53;;;;;;;3.25;2.15;;;;;;;;;;4976952;28;20066;-22
2022/11/05 13:15:27;;;;;;;3.03;2.45;;;;;;;;;;4960323;28;20023;-22
2022/11/05 13:18:05;;;;;;;2.85;1.75;;;;;;;;;;4977589;28;20034;-21
2022/11/05 13:20:39;;;;;;;2.25;2.05;;;;;;;;;;4977619;28;20026;-22
2022/11/05 13:23:15;;;;;;;4.97;1.63;;;;;;;;;;4977459;28;20031;-22
2022/11/05 13:25:45;;;;;;;3.30;2.90;;;;;;;;;;4977142;28;20030;-25
2022/11/05 13:28:14;;;;;;;3.90;2.13;;;;;;;;;;4977118;28;20030;-21
2022/11/05 13:30:43;;;;;;;2.78;1.90;;;;;;;;;;4977077;28;20035;-21
2022/11/05 13:33:19;;;;;;;2.92;2.45;;;;;;;;;;4977138;28;20263;-21
2022/11/05 13:35:48;;;;;;;2.65;1.50;;;;;;;;;;4977224;28;20026;-22
2022/11/05 13:41:28;;;;;;;2.70;1.60;;;;;;;;;;4977202;28;20045;-22
2022/11/05 13:43:54;;;;;;;4.30;2.40;;;;;;;;;;4977015;28;20041;-22
2022/11/05 13:46:21;;;;;;;2.30;1.88;;;;;;;;;;4976780;28;20034;-21
2022/11/05 13:48:50;;;;;;;4.97;1.88;;;;;;;;;;4976719;28;20027;-21
2022/11/05 13:51:16;;;;;;;3.17;2.38;;;;;;;;;;4976757;28;20158;-22
2022/11/05 13:53:42;;;;;;;1.42;1.30;;;;;;;;;;4976602;28;20034;-22
2022/11/05 13:56:33;;;;;;;5.97;2.17;;;;;;;;;;4976593;28;20469;-22
2022/11/05 13:59:14;;;;;;;2.07;1.60;;;;;;;;;;4976730;28;20397;-21
2022/11/05 14:01:46;;;;;;;2.40;1.90;;;;;;;;;;4976567;28;20058;-22
2022/11/05 14:04:25;;;;;;;2.45;1.55;;;;;;;;;;4976293;28;20050;-22
2022/11/05 14:06:51;;;;;;;2.00;1.45;;;;;;;;;;4977005;28;20023;-22
2022/11/05 14:09:24;;;;;;;3.70;1.75;;;;;;;;;;4976426;28;20031;-22
2022/11/05 14:11:53;;;;;;;3.05;1.73;;;;;;;;;;4976198;28;20059;-22
2022/11/05 14:14:24;;;;;;;4.32;2.00;;;;;;;;;;4976601;28;20023;-22
2022/11/05 14:16:52;;;;;;;3.53;2.08;;;;;;;;;;4976844;28;20088;-22
2022/11/05 14:19:18;;;;;;;3.05;1.88;;;;;;;;;;4976544;28;20050;-22
2022/11/05 14:21:49;;;;;;;2.92;1.73;;;;;;;;;;4976417;28;20376;-22
2022/11/05 14:24:21;;;;;;;3.20;2.00;;;;;;;;;;4975885;28;20034;-22
2022/11/05 14:26:59;;;;;;;4.43;2.05;;;;;;;;;;4976246;28;20098;-21
2022/11/05 14:29:42;;;;;;;3.75;2.15;;;;;;;;;;4976127;28;20057;-23
2022/11/05 14:32:17;;;;;;;2.75;2.20;;;;;;;;;;4976417;28;20026;-21
2022/11/05 14:34:45;;;;;;;2.22;1.90;;;;;;;;;;4976313;28;20027;-22
2022/11/05 14:37:12;;;;;;;3.00;2.40;;;;;;;;;;4976242;28;20113;-22
2022/11/05 14:39:39;;;;;;;2.03;1.70;;;;;;;;;;4976014;28;20383;-23
2022/11/05 14:42:08;;;;;;;4.13;2.25;;;;;;;;;;4975908;28;20027;-25
2022/11/05 14:44:35;;;;;;;3.60;2.05;;;;;;;;;;4975937;28;20050;-23
2022/11/05 14:47:04;;;;;;;2.20;1.80;;;;;;;;;;4958906;28;20362;-22
2022/11/05 14:49:33;;;;;;;2.70;1.63;;;;;;;;;;4976141;28;20106;-22
2022/11/05 14:52:00;;;;;;;2.10;1.70;;;;;;;;;;4975777;28;20027;-21
2022/11/05 14:54:30;;;;;;;2.40;1.83;;;;;;;;;;4976380;28;20019;-22
2022/11/05 14:56:58;;;;;;;2.25;1.85;;;;;;;;;;4976120;28;20023;-22
2022/11/05 14:59:27;;;;;;;2.63;1.67;;;;;;;;;;4975993;28;20039;-22
2022/11/05 15:01:55;;;;;;;2.85;1.77;;;;;;;;;;4975632;28;20045;-21
2022/11/05 15:04:32;;;;;;;2.83;2.00;;;;;;;;;;4975629;28;20042;-22
2022/11/05 15:07:04;;;;;;;4.85;2.05;;;;;;;;;;4975716;28;20121;-23
2022/11/05 15:09:34;;;;;;;3.80;1.90;;;;;;;;;;4975630;28;20074;-23
2022/11/05 15:12:08;;;;;;;4.57;2.80;;;;;;;;;;4975842;28;20031;-22
2022/11/05 15:14:46;;;;;;;4.47;2.28;;;;;;;;;;4975724;28;20022;-22
2022/11/05 15:17:30;;;;;;;3.35;2.03;;;;;;;;;;4975951;28;20022;-22
2022/11/05 15:20:19;;;;;;;2.75;2.28;;;;;;;;;;4975645;28;20359;-22
2022/11/05 15:22:48;;;;;;;2.97;2.03;;;;;;;;;;4975747;28;20035;-22
2022/11/05 15:25:16;;;;;;;4.47;2.13;;;;;;;;;;4975527;28;20039;-25
2022/11/05 15:27:42;;;;;;;2.05;1.50;;;;;;;;;;4975864;28;20406;-22
2022/11/05 15:30:19;;;;;;;5.05;2.22;;;;;;;;;;4975536;28;20105;-23
2022/11/05 15:32:45;;;;;;;3.67;2.40;;;;;;;;;;4975548;28;20037;-22
2022/11/05 15:35:19;;;;;;;3.25;2.22;;;;;;;;;;4975744;28;20077;-22
2022/11/05 15:37:47;;;;;;;1.83;1.70;;;;;;;;;;4979069;28;20031;-24